sensor_id;sensor_type;location;lat;lon;timestamp;pressure;altitude;pressure_sealevel;temperature;humidity
61710;BME280;73500;51.494;5.386;2024-02-26T00:01:12;99721.75;;;18.80;41.54
61710;BME280;73500;51.494;5.386;2024-02-26T00:03:37;99687.81;;;18.59;41.48
61710;BME280;73500;51.494;5.386;2024-02-26T00:06:04;99709.66;;;18.69;41.47
61710;BME280;73500;51.494;5.386;2024-02-26T00:08:29;99715.63;;;18.71;41.48
61710;BME280;73500;51.494;5.386;2024-02-26T00:10:54;99714.78;;;18.71;41.66
61710;BME280;73500;51.494;5.386;2024-02-26T00:13:20;99718.41;;;18.70;41.58
61710;BME280;73500;51.494;5.386;2024-02-26T00:15:45;99716.09;;;18.66;41.40
61710;BME280;73500;51.494;5.386;2024-02-26T00:18:11;99697.72;;;18.57;41.46
61710;BME280;73500;51.494;5.386;2024-02-26T00:20:36;99700.19;;;18.58;41.37
61710;BME280;73500;51.494;5.386;2024-02-26T00:23:01;99715.41;;;18.64;41.07
61710;BME280;73500;51.494;5.386;2024-02-26T00:25:26;99700.34;;;18.57;41.18
61710;BME280;73500;51.494;5.386;2024-02-26T00:27:52;99701.47;;;18.54;41.15
61710;BME280;73500;51.494;5.386;2024-02-26T00:30:17;99689.41;;;18.52;41.18
61710;BME280;73500;51.494;5.386;2024-02-26T00:32:42;99703.31;;;18.54;41.24
61710;BME280;73500;51.494;5.386;2024-02-26T00:35:08;99706.09;;;18.52;41.27
61710;BME280;73500;51.494;5.386;2024-02-26T00:37:34;99707.56;;;18.55;41.31
61710;BME280;73500;51.494;5.386;2024-02-26T00:40:00;99693.22;;;18.49;41.34
61710;BME280;73500;51.494;5.386;2024-02-26T00:42:25;99681.59;;;18.42;41.06
61710;BME280;73500;51.494;5.386;2024-02-26T00:44:51;99704.78;;;18.56;41.06
61710;BME280;73500;51.494;5.386;2024-02-26T00:47:16;99701.31;;;18.56;41.22
61710;BME280;73500;51.494;5.386;2024-02-26T00:49:41;99701.03;;;18.59;41.07
61710;BME280;73500;51.494;5.386;2024-02-26T00:52:07;99697.34;;;18.52;41.01
61710;BME280;73500;51.494;5.386;2024-02-26T00:54:32;99666.56;;;18.34;41.14
61710;BME280;73500;51.494;5.386;2024-02-26T00:56:57;99676.03;;;18.45;40.86
61710;BME280;73500;51.494;5.386;2024-02-26T00:59:22;99674.69;;;18.41;40.82
61710;BME280;73500;51.494;5.386;2024-02-26T01:01:48;99673.19;;;18.38;41.03
61710;BME280;73500;51.494;5.386;2024-02-26T01:04:13;99695.84;;;18.49;40.81
61710;BME280;73500;51.494;5.386;2024-02-26T01:06:38;99688.69;;;18.41;40.87
61710;BME280;73500;51.494;5.386;2024-02-26T01:09:04;99713.00;;;18.53;40.75
61710;BME280;73500;51.494;5.386;2024-02-26T01:11:29;99687.50;;;18.36;40.83
61710;BME280;73500;51.494;5.386;2024-02-26T01:13:54;99686.16;;;18.31;40.97
61710;BME280;73500;51.494;5.386;2024-02-26T01:16:24;99721.56;;;18.47;40.83
61710;BME280;73500;51.494;5.386;2024-02-26T01:18:50;99711.97;;;18.46;40.67
61710;BME280;73500;51.494;5.386;2024-02-26T01:21:15;99700.53;;;18.37;40.80
61710;BME280;73500;51.494;5.386;2024-02-26T01:23:40;99707.97;;;18.42;40.66
61710;BME280;73500;51.494;5.386;2024-02-26T01:26:05;99711.78;;;18.39;40.84
61710;BME280;73500;51.494;5.386;2024-02-26T01:28:31;99714.88;;;18.35;40.54
61710;BME280;73500;51.494;5.386;2024-02-26T01:30:56;99729.41;;;18.39;41.05
61710;BME280;73500;51.494;5.386;2024-02-26T01:33:21;99711.56;;;18.33;40.80
61710;BME280;73500;51.494;5.386;2024-02-26T01:35:47;99719.34;;;18.34;40.99
61710;BME280;73500;51.494;5.386;2024-02-26T01:38:12;99728.13;;;18.43;41.01
61710;BME280;73500;51.494;5.386;2024-02-26T01:40:38;99727.44;;;18.41;40.82
61710;BME280;73500;51.494;5.386;2024-02-26T01:43:03;99716.44;;;18.27;40.87
61710;BME280;73500;51.494;5.386;2024-02-26T01:45:28;99730.56;;;18.36;40.85
61710;BME280;73500;51.494;5.386;2024-02-26T01:47:54;99719.78;;;18.29;40.96
61710;BME280;73500;51.494;5.386;2024-02-26T01:50:20;99719.94;;;18.28;40.78
61710;BME280;73500;51.494;5.386;2024-02-26T01:52:47;99739.94;;;18.39;41.04
61710;BME280;73500;51.494;5.386;2024-02-26T01:55:14;99721.06;;;18.25;40.83
61710;BME280;73500;51.494;5.386;2024-02-26T01:57:42;99739.59;;;18.34;40.94
61710;BME280;73500;51.494;5.386;2024-02-26T02:00:09;99734.59;;;18.30;40.73
61710;BME280;73500;51.494;5.386;2024-02-26T02:02:35;99738.09;;;18.31;40.80
61710;BME280;73500;51.494;5.386;2024-02-26T02:05:01;99719.84;;;18.20;40.91
61710;BME280;73500;51.494;5.386;2024-02-26T02:07:27;99722.34;;;18.21;40.94
61710;BME280;73500;51.494;5.386;2024-02-26T02:09:53;99738.56;;;18.26;41.17
61710;BME280;73500;51.494;5.386;2024-02-26T02:12:18;99737.84;;;18.24;40.95
61710;BME280;73500;51.494;5.386;2024-02-26T02:14:44;99738.84;;;18.23;41.00
61710;BME280;73500;51.494;5.386;2024-02-26T02:17:09;99735.38;;;18.23;40.97
61710;BME280;73500;51.494;5.386;2024-02-26T02:19:35;99744.34;;;18.30;41.09
61710;BME280;73500;51.494;5.386;2024-02-26T02:22:00;99741.34;;;18.25;40.87
61710;BME280;73500;51.494;5.386;2024-02-26T02:24:25;99741.63;;;18.22;40.97
61710;BME280;73500;51.494;5.386;2024-02-26T02:26:51;99749.78;;;18.28;41.09
61710;BME280;73500;51.494;5.386;2024-02-26T02:29:16;99738.16;;;18.21;41.14
61710;BME280;73500;51.494;5.386;2024-02-26T02:31:41;99733.19;;;18.18;40.84
61710;BME280;73500;51.494;5.386;2024-02-26T02:34:08;99748.94;;;18.28;41.18
61710;BME280;73500;51.494;5.386;2024-02-26T02:36:34;99750.88;;;18.26;40.96
61710;BME280;73500;51.494;5.386;2024-02-26T02:38:59;99748.69;;;18.21;41.18
61710;BME280;73500;51.494;5.386;2024-02-26T02:41:24;99726.50;;;18.06;41.13
61710;BME280;73500;51.494;5.386;2024-02-26T02:43:51;99736.59;;;18.10;41.27
61710;BME280;73500;51.494;5.386;2024-02-26T02:46:17;99744.59;;;18.19;40.94
61710;BME280;73500;51.494;5.386;2024-02-26T02:48:42;99751.34;;;18.21;41.14
61710;BME280;73500;51.494;5.386;2024-02-26T02:51:08;99734.94;;;18.09;40.86
61710;BME280;73500;51.494;5.386;2024-02-26T02:53:34;99750.16;;;18.16;41.02
61710;BME280;73500;51.494;5.386;2024-02-26T02:55:59;99740.22;;;18.09;41.12
61710;BME280;73500;51.494;5.386;2024-02-26T02:58:24;99733.41;;;18.07;41.08
61710;BME280;73500;51.494;5.386;2024-02-26T03:00:50;99738.38;;;18.10;41.14
61710;BME280;73500;51.494;5.386;2024-02-26T03:03:15;99737.06;;;18.06;41.16
61710;BME280;73500;51.494;5.386;2024-02-26T03:05:40;99754.97;;;18.20;41.01
61710;BME280;73500;51.494;5.386;2024-02-26T03:08:06;99726.50;;;18.06;41.28
61710;BME280;73500;51.494;5.386;2024-02-26T03:10:31;99744.88;;;18.16;41.13
61710;BME280;73500;51.494;5.386;2024-02-26T03:12:56;99748.50;;;18.15;41.28
61710;BME280;73500;51.494;5.386;2024-02-26T03:15:22;99745.34;;;18.11;41.39
61710;BME280;73500;51.494;5.386;2024-02-26T03:17:47;99747.97;;;18.11;41.04
61710;BME280;73500;51.494;5.386;2024-02-26T03:20:12;99755.44;;;18.16;41.26
61710;BME280;73500;51.494;5.386;2024-02-26T03:22:39;99750.91;;;18.08;41.17
61710;BME280;73500;51.494;5.386;2024-02-26T03:25:05;99749.63;;;18.12;41.33
61710;BME280;73500;51.494;5.386;2024-02-26T03:27:31;99746.59;;;18.07;41.04
61710;BME280;73500;51.494;5.386;2024-02-26T03:29:56;99754.34;;;18.08;41.19
61710;BME280;73500;51.494;5.386;2024-02-26T03:32:22;99733.34;;;17.99;41.03
61710;BME280;73500;51.494;5.386;2024-02-26T03:34:47;99760.19;;;18.12;41.34
61710;BME280;73500;51.494;5.386;2024-02-26T03:37:12;99757.53;;;18.12;41.29
61710;BME280;73500;51.494;5.386;2024-02-26T03:39:38;99740.81;;;18.03;41.31
61710;BME280;73500;51.494;5.386;2024-02-26T03:42:04;99762.53;;;18.15;41.20
61710;BME280;73500;51.494;5.386;2024-02-26T03:44:29;99753.69;;;18.06;41.21
61710;BME280;73500;51.494;5.386;2024-02-26T03:46:54;99762.81;;;18.12;41.27
61710;BME280;73500;51.494;5.386;2024-02-26T03:49:21;99756.53;;;18.13;41.43
61710;BME280;73500;51.494;5.386;2024-02-26T03:51:47;99752.56;;;18.09;41.39
61710;BME280;73500;51.494;5.386;2024-02-26T03:54:13;99734.19;;;17.99;41.63
61710;BME280;73500;51.494;5.386;2024-02-26T03:56:38;99756.19;;;18.08;41.27
61710;BME280;73500;51.494;5.386;2024-02-26T03:59:03;99752.72;;;18.07;41.42
61710;BME280;73500;51.494;5.386;2024-02-26T04:01:28;99742.91;;;18.00;41.10
61710;BME280;73500;51.494;5.386;2024-02-26T04:03:54;99738.09;;;17.95;41.12
61710;BME280;73500;51.494;5.386;2024-02-26T04:06:19;99738.63;;;17.99;41.44
61710;BME280;73500;51.494;5.386;2024-02-26T04:08:46;99735.47;;;17.95;41.33
61710;BME280;73500;51.494;5.386;2024-02-26T04:11:12;99744.88;;;17.98;41.21
61710;BME280;73500;51.494;5.386;2024-02-26T04:13:37;99767.69;;;18.07;41.33
61710;BME280;73500;51.494;5.386;2024-02-26T04:16:06;99765.91;;;18.07;41.33
61710;BME280;73500;51.494;5.386;2024-02-26T04:18:32;99736.59;;;17.92;41.53
61710;BME280;73500;51.494;5.386;2024-02-26T04:20:57;99751.66;;;18.00;41.30
61710;BME280;73500;51.494;5.386;2024-02-26T04:23:23;99738.53;;;17.90;41.25
61710;BME280;73500;51.494;5.386;2024-02-26T04:25:48;99739.38;;;17.91;41.37
61710;BME280;73500;51.494;5.386;2024-02-26T04:28:14;99758.50;;;17.93;41.37
61710;BME280;73500;51.494;5.386;2024-02-26T04:30:39;99757.66;;;17.92;41.35
61710;BME280;73500;51.494;5.386;2024-02-26T04:33:04;99772.44;;;18.03;41.34
61710;BME280;73500;51.494;5.386;2024-02-26T04:35:30;99749.91;;;17.91;41.33
61710;BME280;73500;51.494;5.386;2024-02-26T04:37:55;99781.66;;;17.99;41.33
61710;BME280;73500;51.494;5.386;2024-02-26T04:40:21;99771.84;;;17.91;41.19
61710;BME280;73500;51.494;5.386;2024-02-26T04:42:46;99771.69;;;17.93;41.33
61710;BME280;73500;51.494;5.386;2024-02-26T04:45:11;99773.47;;;17.92;41.44
61710;BME280;73500;51.494;5.386;2024-02-26T04:47:37;99794.81;;;17.99;41.64
61710;BME280;73500;51.494;5.386;2024-02-26T04:50:02;99772.00;;;17.90;41.59
61710;BME280;73500;51.494;5.386;2024-02-26T04:52:28;99784.31;;;17.89;41.43
61710;BME280;73500;51.494;5.386;2024-02-26T04:54:53;99796.91;;;17.95;41.44
61710;BME280;73500;51.494;5.386;2024-02-26T04:57:19;99789.16;;;17.94;41.36
61710;BME280;73500;51.494;5.386;2024-02-26T04:59:44;99791.25;;;17.90;41.40
61710;BME280;73500;51.494;5.386;2024-02-26T05:02:11;99778.34;;;17.87;41.33
61710;BME280;73500;51.494;5.386;2024-02-26T05:04:36;99784.59;;;17.96;41.32
61710;BME280;73500;51.494;5.386;2024-02-26T05:07:02;99758.38;;;17.85;41.72
61710;BME280;73500;51.494;5.386;2024-02-26T05:09:27;99786.81;;;17.91;41.35
61710;BME280;73500;51.494;5.386;2024-02-26T05:11:52;99780.72;;;17.90;41.56
61710;BME280;73500;51.494;5.386;2024-02-26T05:14:18;99772.25;;;17.87;41.49
61710;BME280;73500;51.494;5.386;2024-02-26T05:16:43;99781.94;;;17.86;41.28
61710;BME280;73500;51.494;5.386;2024-02-26T05:19:08;99762.75;;;17.76;41.66
61710;BME280;73500;51.494;5.386;2024-02-26T05:21:34;99791.13;;;17.92;41.49
61710;BME280;73500;51.494;5.386;2024-02-26T05:23:59;99777.31;;;17.80;41.53
61710;BME280;73500;51.494;5.386;2024-02-26T05:26:25;99784.59;;;17.86;41.68
61710;BME280;73500;51.494;5.386;2024-02-26T05:28:50;99802.63;;;17.91;41.76
61710;BME280;73500;51.494;5.386;2024-02-26T05:31:16;99796.69;;;17.89;41.67
61710;BME280;73500;51.494;5.386;2024-02-26T05:33:42;99796.13;;;17.85;41.44
61710;BME280;73500;51.494;5.386;2024-02-26T05:36:07;99799.31;;;17.89;41.56
61710;BME280;73500;51.494;5.386;2024-02-26T05:38:33;99813.03;;;17.92;41.44
61710;BME280;73500;51.494;5.386;2024-02-26T05:40:59;99794.91;;;17.80;41.70
61710;BME280;73500;51.494;5.386;2024-02-26T05:43:25;99825.38;;;17.92;41.19
61710;BME280;73500;51.494;5.386;2024-02-26T05:45:50;99817.78;;;17.89;41.52
61710;BME280;73500;51.494;5.386;2024-02-26T05:48:16;99821.22;;;17.89;41.49
61710;BME280;73500;51.494;5.386;2024-02-26T05:50:41;99823.16;;;17.87;41.51
61710;BME280;73500;51.494;5.386;2024-02-26T05:53:06;99822.47;;;17.85;41.52
61710;BME280;73500;51.494;5.386;2024-02-26T05:55:32;99822.91;;;17.81;41.37
61710;BME280;73500;51.494;5.386;2024-02-26T05:57:57;99834.66;;;17.86;41.65
61710;BME280;73500;51.494;5.386;2024-02-26T06:00:22;99836.78;;;17.83;41.38
61710;BME280;73500;51.494;5.386;2024-02-26T06:02:48;99824.31;;;17.75;41.49
61710;BME280;73500;51.494;5.386;2024-02-26T06:05:13;99829.75;;;17.73;41.75
61710;BME280;73500;51.494;5.386;2024-02-26T06:07:38;99852.16;;;17.87;41.79
61710;BME280;73500;51.494;5.386;2024-02-26T06:10:04;99851.75;;;17.82;42.03
61710;BME280;73500;51.494;5.386;2024-02-26T06:12:30;99853.72;;;17.90;41.91
61710;BME280;73500;51.494;5.386;2024-02-26T06:14:56;99859.66;;;17.92;42.12
61710;BME280;73500;51.494;5.386;2024-02-26T06:17:21;99858.53;;;17.94;42.03
61710;BME280;73500;51.494;5.386;2024-02-26T06:19:46;99871.44;;;17.98;42.00
61710;BME280;73500;51.494;5.386;2024-02-26T06:22:12;99870.28;;;18.00;42.11
61710;BME280;73500;51.494;5.386;2024-02-26T06:24:37;99866.69;;;18.01;41.92
61710;BME280;73500;51.494;5.386;2024-02-26T06:27:03;99870.97;;;18.02;42.28
61710;BME280;73500;51.494;5.386;2024-02-26T06:29:28;99874.81;;;18.08;42.13
61710;BME280;73500;51.494;5.386;2024-02-26T06:31:54;99859.34;;;17.95;42.01
61710;BME280;73500;51.494;5.386;2024-02-26T06:34:19;99887.41;;;18.14;42.20
61710;BME280;73500;51.494;5.386;2024-02-26T06:36:44;99892.56;;;18.16;42.19
61710;BME280;73500;51.494;5.386;2024-02-26T06:39:09;99878.97;;;18.10;42.19
61710;BME280;73500;51.494;5.386;2024-02-26T06:41:36;99855.59;;;17.98;42.22
61710;BME280;73500;51.494;5.386;2024-02-26T06:44:01;99893.22;;;18.18;42.16
61710;BME280;73500;51.494;5.386;2024-02-26T06:46:27;99900.25;;;18.27;42.15
61710;BME280;73500;51.494;5.386;2024-02-26T06:48:55;99888.31;;;18.23;42.03
61710;BME280;73500;51.494;5.386;2024-02-26T06:51:21;99889.19;;;18.23;42.06
61710;BME280;73500;51.494;5.386;2024-02-26T06:53:46;99895.13;;;18.25;42.15
61710;BME280;73500;51.494;5.386;2024-02-26T06:56:11;99905.38;;;18.28;42.07
61710;BME280;73500;51.494;5.386;2024-02-26T06:58:37;99897.47;;;18.28;42.02
61710;BME280;73500;51.494;5.386;2024-02-26T07:01:02;99910.22;;;18.33;42.22
61710;BME280;73500;51.494;5.386;2024-02-26T07:03:28;99902.50;;;18.22;41.90
61710;BME280;73500;51.494;5.386;2024-02-26T07:05:54;99911.91;;;18.24;41.93
61710;BME280;73500;51.494;5.386;2024-02-26T07:08:19;99912.31;;;18.29;41.79
61710;BME280;73500;51.494;5.386;2024-02-26T07:10:45;99897.69;;;18.17;42.05
61710;BME280;73500;51.494;5.386;2024-02-26T07:13:11;99907.63;;;18.23;41.88
61710;BME280;73500;51.494;5.386;2024-02-26T07:15:36;99917.75;;;18.28;42.05
61710;BME280;73500;51.494;5.386;2024-02-26T07:18:01;99935.44;;;18.36;41.94
61710;BME280;73500;51.494;5.386;2024-02-26T07:20:30;99936.97;;;18.38;42.26
61710;BME280;73500;51.494;5.386;2024-02-26T07:22:56;99917.03;;;18.26;42.13
61710;BME280;73500;51.494;5.386;2024-02-26T07:25:21;99928.28;;;18.28;42.45
61710;BME280;73500;51.494;5.386;2024-02-26T07:27:46;99938.41;;;18.33;42.33
61710;BME280;73500;51.494;5.386;2024-02-26T07:30:12;99959.59;;;18.41;42.55
61710;BME280;73500;51.494;5.386;2024-02-26T07:32:37;99948.09;;;18.32;42.46
61710;BME280;73500;51.494;5.386;2024-02-26T07:35:03;99970.16;;;18.41;42.61
61710;BME280;73500;51.494;5.386;2024-02-26T07:37:29;99970.81;;;18.43;42.66
61710;BME280;73500;51.494;5.386;2024-02-26T07:39:54;99956.53;;;18.36;42.60
61710;BME280;73500;51.494;5.386;2024-02-26T07:42:20;99953.91;;;18.36;42.81
61710;BME280;73500;51.494;5.386;2024-02-26T07:44:45;99979.56;;;18.43;42.81
61710;BME280;73500;51.494;5.386;2024-02-26T07:47:11;99970.59;;;18.36;42.90
61710;BME280;73500;51.494;5.386;2024-02-26T07:49:36;99966.28;;;18.35;43.14
61710;BME280;73500;51.494;5.386;2024-02-26T07:52:01;99981.38;;;18.43;42.85
61710;BME280;73500;51.494;5.386;2024-02-26T07:54:27;99961.44;;;18.30;43.48
61710;BME280;73500;51.494;5.386;2024-02-26T07:56:52;99976.69;;;18.37;43.18
61710;BME280;73500;51.494;5.386;2024-02-26T07:59:17;99965.75;;;18.31;43.50
61710;BME280;73500;51.494;5.386;2024-02-26T08:01:43;99984.16;;;18.41;43.54
61710;BME280;73500;51.494;5.386;2024-02-26T08:04:08;99994.28;;;18.46;43.45
61710;BME280;73500;51.494;5.386;2024-02-26T08:06:34;99980.63;;;18.33;43.01
61710;BME280;73500;51.494;5.386;2024-02-26T08:08:59;100017.19;;;18.45;43.55
61710;BME280;73500;51.494;5.386;2024-02-26T08:11:24;100002.47;;;18.43;43.49
61710;BME280;73500;51.494;5.386;2024-02-26T08:13:49;99996.44;;;18.33;43.40
61710;BME280;73500;51.494;5.386;2024-02-26T08:16:15;100006.22;;;18.40;43.55
61710;BME280;73500;51.494;5.386;2024-02-26T08:18:40;99996.72;;;18.29;43.62
61710;BME280;73500;51.494;5.386;2024-02-26T08:21:05;100015.00;;;18.41;43.42
61710;BME280;73500;51.494;5.386;2024-02-26T08:23:31;100018.47;;;18.41;43.47
61710;BME280;73500;51.494;5.386;2024-02-26T08:25:57;100017.41;;;18.34;43.55
61710;BME280;73500;51.494;5.386;2024-02-26T08:28:22;100003.94;;;18.27;43.53
61710;BME280;73500;51.494;5.386;2024-02-26T08:30:47;100022.66;;;18.34;43.47
61710;BME280;73500;51.494;5.386;2024-02-26T08:33:13;100040.09;;;18.45;43.33
61710;BME280;73500;51.494;5.386;2024-02-26T08:35:38;100026.28;;;18.33;43.48
61710;BME280;73500;51.494;5.386;2024-02-26T08:38:04;100027.78;;;18.36;43.59
61710;BME280;73500;51.494;5.386;2024-02-26T08:40:29;100043.03;;;18.42;43.17
61710;BME280;73500;51.494;5.386;2024-02-26T08:42:54;100050.78;;;18.43;43.34
61710;BME280;73500;51.494;5.386;2024-02-26T08:45:20;100047.75;;;18.38;43.24
61710;BME280;73500;51.494;5.386;2024-02-26T08:47:46;100051.94;;;18.41;43.41
61710;BME280;73500;51.494;5.386;2024-02-26T08:50:11;100062.19;;;18.44;43.14
61710;BME280;73500;51.494;5.386;2024-02-26T08:52:37;100035.59;;;18.27;43.16
61710;BME280;73500;51.494;5.386;2024-02-26T08:55:03;100039.91;;;18.28;43.18
61710;BME280;73500;51.494;5.386;2024-02-26T08:57:28;100059.13;;;18.39;43.04
61710;BME280;73500;51.494;5.386;2024-02-26T08:59:54;100060.97;;;18.38;42.98
61710;BME280;73500;51.494;5.386;2024-02-26T09:02:19;100072.91;;;18.42;43.22
61710;BME280;73500;51.494;5.386;2024-02-26T09:04:45;100052.25;;;18.28;43.21
61710;BME280;73500;51.494;5.386;2024-02-26T09:07:10;100065.16;;;18.31;43.28
61710;BME280;73500;51.494;5.386;2024-02-26T09:09:36;100059.88;;;18.31;43.14
61710;BME280;73500;51.494;5.386;2024-02-26T09:12:02;100082.88;;;18.39;43.11
61710;BME280;73500;51.494;5.386;2024-02-26T09:14:27;100093.28;;;18.40;42.93
61710;BME280;73500;51.494;5.386;2024-02-26T09:16:52;100082.50;;;18.34;43.22
61710;BME280;73500;51.494;5.386;2024-02-26T09:19:17;100074.88;;;18.30;42.81
61710;BME280;73500;51.494;5.386;2024-02-26T09:21:46;100095.63;;;18.43;43.15
61710;BME280;73500;51.494;5.386;2024-02-26T09:24:12;100114.97;;;18.44;42.84
61710;BME280;73500;51.494;5.386;2024-02-26T09:26:37;100107.47;;;18.39;43.00
61710;BME280;73500;51.494;5.386;2024-02-26T09:29:03;100106.22;;;18.34;43.03
61710;BME280;73500;51.494;5.386;2024-02-26T09:31:29;100105.69;;;18.30;43.01
61710;BME280;73500;51.494;5.386;2024-02-26T09:33:55;100111.38;;;18.35;42.86
61710;BME280;73500;51.494;5.386;2024-02-26T09:36:20;100116.75;;;18.43;42.81
61710;BME280;73500;51.494;5.386;2024-02-26T09:38:46;100109.72;;;18.34;42.67
61710;BME280;73500;51.494;5.386;2024-02-26T09:41:14;100128.00;;;18.45;42.99
61710;BME280;73500;51.494;5.386;2024-02-26T09:43:44;100115.69;;;18.36;42.94
61710;BME280;73500;51.494;5.386;2024-02-26T09:46:10;100118.59;;;18.33;43.12
61710;BME280;73500;51.494;5.386;2024-02-26T09:48:35;100144.66;;;18.46;42.96
61710;BME280;73500;51.494;5.386;2024-02-26T09:51:02;100134.53;;;18.41;43.14
61710;BME280;73500;51.494;5.386;2024-02-26T09:53:29;100141.50;;;18.42;43.04
61710;BME280;73500;51.494;5.386;2024-02-26T09:55:59;100139.91;;;18.49;42.94
61710;BME280;73500;51.494;5.386;2024-02-26T09:58:27;100136.31;;;18.51;43.15
61710;BME280;73500;51.494;5.386;2024-02-26T10:00:56;100139.63;;;18.53;42.81
61710;BME280;73500;51.494;5.386;2024-02-26T10:03:28;100131.19;;;18.49;43.03
61710;BME280;73500;51.494;5.386;2024-02-26T10:05:55;100151.44;;;18.58;42.76
61710;BME280;73500;51.494;5.386;2024-02-26T10:08:22;100151.44;;;18.58;42.66
61710;BME280;73500;51.494;5.386;2024-02-26T10:10:48;100184.16;;;18.65;42.82
61710;BME280;73500;51.494;5.386;2024-02-26T10:13:14;100150.19;;;18.53;43.07
61710;BME280;73500;51.494;5.386;2024-02-26T10:15:40;100177.69;;;18.60;42.72
61710;BME280;73500;51.494;5.386;2024-02-26T10:18:06;100169.78;;;18.50;43.14
61710;BME280;73500;51.494;5.386;2024-02-26T10:20:32;100179.06;;;18.54;43.06
61710;BME280;73500;51.494;5.386;2024-02-26T10:22:58;100194.63;;;18.57;43.07
61710;BME280;73500;51.494;5.386;2024-02-26T10:25:23;100180.34;;;18.50;43.04
61710;BME280;73500;51.494;5.386;2024-02-26T10:27:49;100179.38;;;18.41;43.22
61710;BME280;73500;51.494;5.386;2024-02-26T10:30:21;100198.66;;;18.52;42.96
61710;BME280;73500;51.494;5.386;2024-02-26T10:32:48;100210.88;;;18.53;42.87
61710;BME280;73500;51.494;5.386;2024-02-26T10:35:14;100187.97;;;18.43;43.12
61710;BME280;73500;51.494;5.386;2024-02-26T10:37:41;100205.88;;;18.49;43.17
61710;BME280;73500;51.494;5.386;2024-02-26T10:40:13;100207.69;;;18.49;43.03
61710;BME280;73500;51.494;5.386;2024-02-26T10:42:39;100221.72;;;18.49;42.66
61710;BME280;73500;51.494;5.386;2024-02-26T10:45:06;100231.69;;;18.56;43.06
61710;BME280;73500;51.494;5.386;2024-02-26T10:47:32;100244.63;;;18.59;43.20
61710;BME280;73500;51.494;5.386;2024-02-26T10:49:59;100253.34;;;18.59;43.24
61710;BME280;73500;51.494;5.386;2024-02-26T10:52:27;100250.59;;;18.51;43.44
61710;BME280;73500;51.494;5.386;2024-02-26T10:54:54;100244.63;;;18.49;43.47
61710;BME280;73500;51.494;5.386;2024-02-26T10:57:22;100277.53;;;18.55;43.01
61710;BME280;73500;51.494;5.386;2024-02-26T10:59:51;100259.34;;;18.52;43.23
61710;BME280;73500;51.494;5.386;2024-02-26T11:02:17;100268.66;;;18.56;42.98
61710;BME280;73500;51.494;5.386;2024-02-26T11:04:44;100262.69;;;18.54;43.05
61710;BME280;73500;51.494;5.386;2024-02-26T11:07:10;100274.75;;;18.56;43.19
61710;BME280;73500;51.494;5.386;2024-02-26T11:09:37;100279.22;;;18.56;43.32
61710;BME280;73500;51.494;5.386;2024-02-26T11:12:08;100254.94;;;18.42;43.34
61710;BME280;73500;51.494;5.386;2024-02-26T11:14:38;100276.31;;;18.49;43.57
61710;BME280;73500;51.494;5.386;2024-02-26T11:17:05;100266.84;;;18.46;43.75
61710;BME280;73500;51.494;5.386;2024-02-26T11:19:35;100286.03;;;18.58;43.68
61710;BME280;73500;51.494;5.386;2024-02-26T11:22:01;100287.13;;;18.56;43.62
61710;BME280;73500;51.494;5.386;2024-02-26T11:24:26;100266.84;;;18.46;43.48
61710;BME280;73500;51.494;5.386;2024-02-26T11:26:55;100272.53;;;18.52;43.94
61710;BME280;73500;51.494;5.386;2024-02-26T11:29:28;100294.06;;;18.57;43.72
61710;BME280;73500;51.494;5.386;2024-02-26T11:31:55;100293.50;;;18.53;43.92
61710;BME280;73500;51.494;5.386;2024-02-26T11:34:20;100292.41;;;18.56;43.54
61710;BME280;73500;51.494;5.386;2024-02-26T11:36:46;100296.84;;;18.55;43.11
61710;BME280;73500;51.494;5.386;2024-02-26T11:39:12;100289.63;;;18.47;43.53
61710;BME280;73500;51.494;5.386;2024-02-26T11:41:38;100274.50;;;18.40;43.66
61710;BME280;73500;51.494;5.386;2024-02-26T11:44:04;100282.13;;;18.43;43.43
61710;BME280;73500;51.494;5.386;2024-02-26T11:46:42;100267.69;;;18.37;43.71
61710;BME280;73500;51.494;5.386;2024-02-26T11:51:51;100282.28;;;18.41;43.83
61710;BME280;73500;51.494;5.386;2024-02-26T11:54:46;100299.91;;;18.51;43.65
61710;BME280;73500;51.494;5.386;2024-02-26T11:57:40;100291.00;;;18.42;43.37
61710;BME280;73500;51.494;5.386;2024-02-26T12:00:13;100287.41;;;18.43;43.16
61710;BME280;73500;51.494;5.386;2024-02-26T12:02:46;100302.00;;;18.47;43.17
61710;BME280;73500;51.494;5.386;2024-02-26T12:05:16;100314.22;;;18.48;43.33
61710;BME280;73500;51.494;5.386;2024-02-26T12:07:44;100313.53;;;18.46;43.40
61710;BME280;73500;51.494;5.386;2024-02-26T12:10:21;100317.84;;;18.47;43.27
61710;BME280;73500;51.494;5.386;2024-02-26T12:12:49;100317.97;;;18.45;43.21
61710;BME280;73500;51.494;5.386;2024-02-26T12:15:15;100315.47;;;18.44;43.16
61710;BME280;73500;51.494;5.386;2024-02-26T12:17:41;100318.81;;;18.36;43.16
61710;BME280;73500;51.494;5.386;2024-02-26T12:20:10;100302.69;;;18.29;42.93
61710;BME280;73500;51.494;5.386;2024-02-26T12:22:44;100333.94;;;18.44;43.15
61710;BME280;73500;51.494;5.386;2024-02-26T12:25:10;100340.88;;;18.45;43.13
61710;BME280;73500;51.494;5.386;2024-02-26T12:27:35;100342.13;;;18.41;43.13
61710;BME280;73500;51.494;5.386;2024-02-26T12:30:02;100319.63;;;18.27;43.13
61710;BME280;73500;51.494;5.386;2024-02-26T12:32:28;100342.28;;;18.39;43.20
61710;BME280;73500;51.494;5.386;2024-02-26T12:34:53;100350.19;;;18.39;43.41
61710;BME280;73500;51.494;5.386;2024-02-26T12:37:19;100329.22;;;18.28;43.38
61710;BME280;73500;51.494;5.386;2024-02-26T12:39:44;100334.34;;;18.29;43.24
61710;BME280;73500;51.494;5.386;2024-02-26T12:42:11;100346.28;;;18.34;43.28
61710;BME280;73500;51.494;5.386;2024-02-26T12:44:37;100352.97;;;18.38;43.16
61710;BME280;73500;51.494;5.386;2024-02-26T12:47:03;100365.28;;;18.37;43.42
61710;BME280;73500;51.494;5.386;2024-02-26T12:49:29;100309.75;;;18.09;43.24
61710;BME280;73500;51.494;5.386;2024-02-26T12:51:54;100372.25;;;18.48;43.06
61710;BME280;73500;51.494;5.386;2024-02-26T12:54:27;100365.03;;;18.40;43.22